Decoded Metar for KSTF ( in ) (IATA:) | Meteo·Mobile Aviation Weather
aviador You're here:

KSTF Decoded Metar

in
Report Time2018-12-15 16:35:00
UTC Time2018-12-15 16:27:34
Flight Rules ifr IFR
Wind250° at 06 kt
W.Decomp.*RWY 18: 2.1 kt HW 5.6 kt RCW
W.Rank250° ranks 30
Current wind is above 250° avg. (5.1)
Visibility4828 m
Phenomena:Light Rain
Clouds:Broken 005 Hf
Overcast 010 Hf
Ceiling500 ft
Temp08°C
Dew Point08°C (100% RH)
AAT5.4°C
QNH1014 hPa
Raw Report
KSTF 151635Z AUTO 25006KT 3SM -RA BKN005 OVC010 08/08 A2995 RMK
AO2=

Extra information for KSTF:More info

Social comments